Myah — WDD9865 — position and weather

sailwx.info

Track history (hours):
 
Tides and Currents Weather Stations Pressure Air Temp Water Temp Dewpoint Dewpoint Depression Visibility Wind Speed Wind Dir Waves Ship Positions

Myah

Owner: Johnson, Mark D, Miami, FL. More information available from US FCC via Universal Licensing System and Coast Guard Vessel Documentation Center.

Last reported at 2017-Nov-26 00:40 UTC. Time now 2018-Jan-18 17:28 UTC.
Position N 48°00' W 122°13'.
Warning: this ship's position is 53 days out of date.

Length 17 m; draft 2.1 m.

Type: Pleasure craft. MMSI: 367317370.

Date/timePositionNaut miles runAvg speedWind from/ knotsBaromVisibWave heightAir tempDewpointWater temp
2017-Nov-26 00:40N 48°00' W 122°13'1 3.4
2017-Nov-26 00:30N 47°60' W 122°14'4 8.4
2017-Nov-26 00:00N 47°57' W 122°18'4 7.9
2017-Nov-25 23:30N 47°54' W 122°23'4 7.9
2017-Nov-25 23:00N 47°55' W 122°28'4 8.2
2017-Nov-25 22:30N 47°56' W 122°34'4 7.6
2017-Nov-25 21:57N 47°55' W 122°40'0 0.0
2017-Nov-24 21:49N 47°55' W 122°41'2 6.4
2017-Nov-24 21:29N 47°57' W 122°38'5 9.7
2017-Nov-24 21:00N 47°56' W 122°32'5 9.5
2017-Nov-24 20:30N 47°54' W 122°25'4 8.3
2017-Nov-24 20:00N 47°56' W 122°20'5 9.4
2017-Nov-24 19:30N 47°59' W 122°14'2 0.1
2017-Nov-23 22:55N 48°00' W 122°13'0 0.0
2017-Nov-23 13:31N 48°00' W 122°13'0 0.0
2017-Nov-23 07:04N 48°00' W 122°13'0 0.0
2017-Nov-23 04:07N 48°00' W 122°13'  
2017-Nov-19 20:22N 48°00' W 122°13'  
Track history (hours):
 
Tides and Currents Weather Stations Pressure Air Temp Water Temp Dewpoint Dewpoint Depression Visibility Wind Speed Wind Dir Waves Ship Positions

Myah

Owner: Johnson, Mark D, Miami, FL. More information available from US FCC via Universal Licensing System and Coast Guard Vessel Documentation Center.

Last reported at 2017-Nov-26 00:40 UTC. Time now 2018-Jan-18 17:28 UTC.
Position N 48°00' W 122°13'.
Warning: this ship's position is 53 days out of date.

Length 17 m; draft 2.1 m.

Type: Pleasure craft. MMSI: 367317370.

Date/timePositionNaut miles runAvg speedWind from/ knotsBaromVisibWave heightAir tempDewpointWater temp
2017-Nov-26 00:40N 48°00' W 122°13'1 3.4
2017-Nov-26 00:30N 47°60' W 122°14'4 8.4
2017-Nov-26 00:00N 47°57' W 122°18'4 7.9
2017-Nov-25 23:30N 47°54' W 122°23'4 7.9
2017-Nov-25 23:00N 47°55' W 122°28'4 8.2
2017-Nov-25 22:30N 47°56' W 122°34'4 7.6
2017-Nov-25 21:57N 47°55' W 122°40'0 0.0
2017-Nov-24 21:49N 47°55' W 122°41'2 6.4
2017-Nov-24 21:29N 47°57' W 122°38'5 9.7
2017-Nov-24 21:00N 47°56' W 122°32'5 9.5
2017-Nov-24 20:30N 47°54' W 122°25'4 8.3
2017-Nov-24 20:00N 47°56' W 122°20'5 9.4
2017-Nov-24 19:30N 47°59' W 122°14'2 0.1
2017-Nov-23 22:55N 48°00' W 122°13'0 0.0
2017-Nov-23 13:31N 48°00' W 122°13'0 0.0
2017-Nov-23 07:04N 48°00' W 122°13'0 0.0
2017-Nov-23 04:07N 48°00' W 122°13'  
2017-Nov-19 20:22N 48°00' W 122°13'  

Dump ship's entire track history